createdAt,value
2023-02-25T00:00:17.823Z,18.68
2023-02-25T00:02:45.579Z,18.70
2023-02-25T00:05:13.451Z,18.68
2023-02-25T00:07:42.467Z,18.68
2023-02-25T00:10:12.654Z,18.65
2023-02-25T00:12:40.323Z,18.64
2023-02-25T00:15:08.325Z,18.63
2023-02-25T00:17:36.320Z,18.63
2023-02-25T00:20:09.662Z,18.63
2023-02-25T00:22:38.622Z,18.63
2023-02-25T00:25:09.952Z,18.63
2023-02-25T00:27:37.695Z,18.65
2023-02-25T00:30:06.475Z,18.67
2023-02-25T00:32:34.338Z,18.65
2023-02-25T00:35:02.059Z,18.65
2023-02-25T00:37:29.767Z,18.63
2023-02-25T00:39:57.593Z,18.63
2023-02-25T00:42:26.903Z,18.66
2023-02-25T00:44:54.580Z,18.68
2023-02-25T00:47:22.244Z,18.68
2023-02-25T00:49:50.378Z,18.65
2023-02-25T00:52:18.121Z,18.69
2023-02-25T00:54:45.793Z,18.69
2023-02-25T00:57:13.463Z,18.67
2023-02-25T00:59:42.485Z,18.65
2023-02-25T01:02:10.172Z,18.64
2023-02-25T01:04:37.859Z,18.65
2023-02-25T01:07:05.616Z,18.67
2023-02-25T01:09:33.288Z,18.67
2023-02-25T01:12:00.952Z,18.68
2023-02-25T01:14:28.769Z,18.66
2023-02-25T01:17:01.377Z,18.67
2023-02-25T01:19:29.116Z,18.66
2023-02-25T01:21:58.140Z,18.66
2023-02-25T01:24:27.220Z,18.65
2023-02-25T01:26:57.084Z,18.64
2023-02-25T01:29:26.353Z,18.67
2023-02-25T01:31:54.411Z,18.68
2023-02-25T01:34:23.638Z,18.65
2023-02-25T01:36:51.315Z,18.65
2023-02-25T01:39:22.584Z,18.66
2023-02-25T01:41:51.136Z,18.65
2023-02-25T01:44:19.753Z,18.63
2023-02-25T01:46:48.049Z,18.65
2023-02-25T01:49:17.761Z,18.65
2023-02-25T01:51:48.283Z,18.65
2023-02-25T01:54:15.992Z,18.64
2023-02-25T01:56:49.715Z,18.64
2023-02-25T01:59:17.496Z,18.66
2023-02-25T02:01:45.364Z,18.65
2023-02-25T02:04:13.130Z,18.60
2023-02-25T02:06:41.324Z,18.57
2023-02-25T02:09:13.249Z,18.59
2023-02-25T02:11:41.000Z,18.57
2023-02-25T02:14:09.157Z,18.55
2023-02-25T02:17:15.220Z,18.54
2023-02-25T02:19:51.219Z,18.53
2023-02-25T02:22:24.115Z,18.48
2023-02-25T02:25:12.463Z,18.49
2023-02-25T02:27:52.706Z,18.50
2023-02-25T02:30:31.414Z,18.50
2023-02-25T02:33:02.470Z,18.54
2023-02-25T02:35:32.499Z,18.51
2023-02-25T02:38:12.286Z,18.51
2023-02-25T02:40:44.521Z,18.50
2023-02-25T02:43:33.340Z,18.50
2023-02-25T02:46:04.538Z,18.53
2023-02-25T02:48:35.676Z,18.53
2023-02-25T02:51:05.008Z,18.52
2023-02-25T02:53:33.606Z,18.55
2023-02-25T02:56:02.108Z,18.56
2023-02-25T02:58:30.925Z,18.58
2023-02-25T03:01:00.250Z,18.56
2023-02-25T03:03:36.289Z,18.57
2023-02-25T03:06:06.672Z,18.57
2023-02-25T03:08:36.270Z,18.52
2023-02-25T03:11:05.493Z,18.52
2023-02-25T03:13:33.191Z,18.50
2023-02-25T03:16:01.109Z,18.49
2023-02-25T03:18:32.753Z,18.50
2023-02-25T03:21:00.411Z,18.52
2023-02-25T03:23:30.341Z,18.51
2023-02-25T03:26:00.630Z,18.51
2023-02-25T03:28:30.850Z,18.49
2023-02-25T03:31:01.523Z,18.49
2023-02-25T03:33:33.237Z,18.48
2023-02-25T03:36:01.148Z,18.50
2023-02-25T03:38:30.537Z,18.52
2023-02-25T03:40:58.297Z,18.52
2023-02-25T03:43:28.594Z,18.52
2023-02-25T03:45:56.634Z,18.49
2023-02-25T03:48:24.361Z,18.49
2023-02-25T03:50:53.817Z,18.48
2023-02-25T03:53:21.893Z,18.48
2023-02-25T03:55:50.935Z,18.48
2023-02-25T03:58:18.600Z,18.47
2023-02-25T04:00:47.834Z,18.44
2023-02-25T04:03:15.737Z,18.47
2023-02-25T04:05:43.508Z,18.46
2023-02-25T04:08:15.768Z,18.45
2023-02-25T04:10:44.131Z,18.45
2023-02-25T04:13:13.694Z,18.45
2023-02-25T04:15:41.495Z,18.43
2023-02-25T04:18:09.374Z,18.42
2023-02-25T04:20:37.079Z,18.41
2023-02-25T04:23:04.747Z,18.43
2023-02-25T04:25:32.463Z,18.46
2023-02-25T04:28:00.184Z,18.46
2023-02-25T04:30:29.212Z,18.43
2023-02-25T04:32:56.869Z,18.41
2023-02-25T04:35:24.565Z,18.38
2023-02-25T04:37:52.224Z,18.35
2023-02-25T04:40:20.920Z,18.36
2023-02-25T04:42:48.699Z,18.37
2023-02-25T04:45:16.535Z,18.37
2023-02-25T04:47:45.634Z,18.37
2023-02-25T04:50:13.451Z,18.37
2023-02-25T04:52:41.120Z,18.37
2023-02-25T04:55:11.611Z,18.36
2023-02-25T04:57:42.185Z,18.33
2023-02-25T05:00:16.142Z,18.33
2023-02-25T05:02:45.183Z,18.33
2023-02-25T05:05:14.451Z,18.31
2023-02-25T05:07:42.209Z,18.27
2023-02-25T05:10:11.762Z,18.27
2023-02-25T05:12:39.488Z,18.27
2023-02-25T05:15:08.691Z,18.27
2023-02-25T05:17:36.658Z,18.28
2023-02-25T05:20:11.746Z,18.28
2023-02-25T05:22:39.592Z,18.32
2023-02-25T05:25:07.831Z,18.31
2023-02-25T05:27:35.608Z,18.30
2023-02-25T05:30:03.407Z,18.32
2023-02-25T05:32:31.255Z,18.32
2023-02-25T05:34:59.065Z,18.38
2023-02-25T05:37:28.116Z,18.45
2023-02-25T05:39:55.773Z,18.47
2023-02-25T05:42:23.455Z,18.52
2023-02-25T05:44:51.228Z,18.52
2023-02-25T05:47:19.015Z,18.53
2023-02-25T05:49:46.702Z,18.54
2023-02-25T05:52:14.534Z,18.55
2023-02-25T05:54:43.850Z,18.54
2023-02-25T05:57:11.536Z,18.48
2023-02-25T05:59:39.237Z,18.48
2023-02-25T06:02:06.957Z,18.49
2023-02-25T06:04:34.713Z,18.52
2023-02-25T06:07:03.356Z,18.53
2023-02-25T06:09:32.054Z,18.53
2023-02-25T06:12:01.224Z,18.51
2023-02-25T06:14:28.941Z,18.49
2023-02-25T06:16:57.194Z,18.45
2023-02-25T06:19:26.240Z,18.46
2023-02-25T06:21:54.746Z,18.43
2023-02-25T06:24:22.484Z,18.44
2023-02-25T06:26:50.213Z,18.47
2023-02-25T06:29:19.356Z,18.51
2023-02-25T06:31:47.170Z,18.51
2023-02-25T06:34:14.932Z,18.51
2023-02-25T06:36:42.621Z,18.51
2023-02-25T06:39:11.582Z,18.51
2023-02-25T06:41:39.249Z,18.49
2023-02-25T06:44:06.971Z,18.46
2023-02-25T06:46:36.037Z,18.48
2023-02-25T06:49:03.711Z,18.48
2023-02-25T06:51:31.394Z,18.50
2023-02-25T06:53:59.519Z,18.48
2023-02-25T06:56:29.093Z,18.48
2023-02-25T06:58:59.168Z,18.51
2023-02-25T07:01:26.905Z,18.50
2023-02-25T07:03:55.996Z,18.49
2023-02-25T07:06:23.950Z,18.50
2023-02-25T07:08:51.936Z,18.50
2023-02-25T07:11:29.143Z,18.50
2023-02-25T07:13:57.141Z,18.50
2023-02-25T07:16:25.169Z,18.48
2023-02-25T07:18:56.062Z,18.48
2023-02-25T07:21:29.284Z,18.50
2023-02-25T07:23:56.968Z,18.51
2023-02-25T07:26:28.172Z,18.50
2023-02-25T07:28:57.068Z,18.49
2023-02-25T07:31:25.076Z,18.49
2023-02-25T07:33:52.991Z,18.47
2023-02-25T07:36:20.693Z,18.46
2023-02-25T07:38:49.762Z,18.46
2023-02-25T07:41:18.564Z,18.46
2023-02-25T07:43:46.252Z,18.48
2023-02-25T07:46:14.224Z,18.46
2023-02-25T07:48:42.012Z,18.46
2023-02-25T07:51:10.863Z,18.46
2023-02-25T07:53:38.592Z,18.42
2023-02-25T07:56:07.921Z,18.40
2023-02-25T07:58:35.664Z,18.43
2023-02-25T08:01:07.812Z,18.41
2023-02-25T08:03:35.500Z,18.47
2023-02-25T08:06:07.859Z,18.50
2023-02-25T08:08:35.629Z,18.50
2023-02-25T08:11:07.589Z,18.53
2023-02-25T08:13:35.255Z,18.54
2023-02-25T08:16:05.257Z,18.54
2023-02-25T08:18:32.938Z,18.54
2023-02-25T08:21:02.777Z,18.53
2023-02-25T08:23:30.711Z,18.53
2023-02-25T08:25:59.114Z,18.55
2023-02-25T08:28:31.089Z,18.58
2023-02-25T08:31:00.511Z,18.59
2023-02-25T08:33:28.733Z,18.59
2023-02-25T08:35:56.459Z,18.58
2023-02-25T08:38:24.125Z,18.55
2023-02-25T08:40:51.828Z,18.57
2023-02-25T08:43:19.519Z,18.59
2023-02-25T08:45:48.551Z,18.62
2023-02-25T08:48:16.936Z,18.63
2023-02-25T08:50:44.622Z,18.60
2023-02-25T08:53:12.625Z,18.59
2023-02-25T08:55:40.383Z,18.63
2023-02-25T08:58:08.728Z,18.64
2023-02-25T09:00:37.866Z,18.64
2023-02-25T09:03:07.111Z,18.63
2023-02-25T09:05:34.816Z,18.67
2023-02-25T09:08:02.640Z,18.69
2023-02-25T09:10:38.663Z,18.72
2023-02-25T09:13:12.408Z,18.72
2023-02-25T09:15:40.102Z,18.74
2023-02-25T09:18:09.122Z,18.76
2023-02-25T09:20:36.772Z,18.76
2023-02-25T09:23:04.469Z,18.77
2023-02-25T09:25:32.151Z,18.77
2023-02-25T09:27:59.837Z,18.77
2023-02-25T09:30:27.530Z,18.77
2023-02-25T09:32:55.324Z,18.74
2023-02-25T09:35:24.532Z,18.77
2023-02-25T09:37:52.237Z,18.80
2023-02-25T09:40:22.725Z,18.82
2023-02-25T09:42:55.224Z,18.83
2023-02-25T09:45:23.497Z,18.90
2023-02-25T09:47:53.289Z,18.94
2023-02-25T09:50:22.442Z,18.96
2023-02-25T09:52:55.161Z,18.96
2023-02-25T09:55:24.467Z,18.95
2023-02-25T09:57:57.042Z,18.97
2023-02-25T10:00:24.857Z,18.96
2023-02-25T10:02:55.226Z,18.99
2023-02-25T10:05:25.318Z,19.03
2023-02-25T10:07:59.095Z,19.03
2023-02-25T10:10:28.693Z,19.03
2023-02-25T10:12:59.861Z,19.03
2023-02-25T10:15:35.397Z,19.04
2023-02-25T10:18:12.327Z,19.04
2023-02-25T10:21:00.983Z,19.07
2023-02-25T10:23:37.701Z,19.09
2023-02-25T10:26:09.073Z,19.06
2023-02-25T10:28:36.790Z,19.07
2023-02-25T10:31:06.534Z,19.10
2023-02-25T10:33:36.818Z,19.10
2023-02-25T10:36:08.665Z,19.10
2023-02-25T10:38:41.907Z,19.11
2023-02-25T10:41:09.577Z,19.08
2023-02-25T10:43:37.326Z,19.07
2023-02-25T10:46:09.385Z,19.06
2023-02-25T10:48:38.106Z,19.06
2023-02-25T10:51:09.747Z,19.04
2023-02-25T10:53:38.938Z,19.00
2023-02-25T10:56:06.943Z,18.99
2023-02-25T10:58:40.795Z,18.97
2023-02-25T11:01:13.651Z,19.02
2023-02-25T11:03:53.661Z,19.11
2023-02-25T11:06:26.962Z,19.12
2023-02-25T11:08:58.504Z,19.12
2023-02-25T11:11:28.173Z,19.10
2023-02-25T11:14:01.918Z,19.10
2023-02-25T11:16:29.804Z,19.12
2023-02-25T11:18:58.670Z,19.16
2023-02-25T11:21:34.488Z,19.18
2023-02-25T11:24:04.811Z,19.19
2023-02-25T11:26:34.368Z,19.26
2023-02-25T11:29:02.961Z,19.29
2023-02-25T11:31:33.158Z,19.30
2023-02-25T11:34:03.330Z,19.33
2023-02-25T11:36:31.501Z,19.35
2023-02-25T11:39:09.036Z,19.37
2023-02-25T11:41:36.719Z,19.40
2023-02-25T11:44:28.191Z,19.40
2023-02-25T11:47:08.325Z,19.42
2023-02-25T11:49:58.179Z,19.42
2023-02-25T11:52:27.455Z,19.41
2023-02-25T11:55:03.435Z,19.45
2023-02-25T11:57:34.266Z,19.46
2023-02-25T12:00:11.396Z,19.49
2023-02-25T12:02:45.160Z,19.54
2023-02-25T12:05:51.353Z,19.58
2023-02-25T12:08:33.039Z,19.63
2023-02-25T12:11:25.128Z,19.63
2023-02-25T12:14:33.974Z,19.62
2023-02-25T12:17:26.879Z,19.61
2023-02-25T12:20:42.014Z,19.58
2023-02-25T12:23:40.475Z,19.61
2023-02-25T12:26:09.668Z,19.63
2023-02-25T12:28:56.737Z,19.65
2023-02-25T12:32:03.387Z,19.70
2023-02-25T12:34:43.209Z,19.71
2023-02-25T12:37:24.059Z,19.75
2023-02-25T12:39:59.520Z,19.81
2023-02-25T12:42:42.131Z,19.85
2023-02-25T12:45:48.442Z,19.91
2023-02-25T12:48:48.238Z,19.91
2023-02-25T12:51:34.506Z,19.86
2023-02-25T12:54:07.929Z,19.84
2023-02-25T12:57:00.566Z,19.80
2023-02-25T12:59:47.529Z,19.88
2023-02-25T13:02:36.992Z,19.96
2023-02-25T13:05:13.268Z,20.04
2023-02-25T13:08:23.996Z,20.04
2023-02-25T13:10:55.622Z,19.97
2023-02-25T13:13:46.277Z,19.98
2023-02-25T13:16:19.763Z,20.07
2023-02-25T13:18:53.321Z,20.13
2023-02-25T13:21:28.413Z,20.14
2023-02-25T13:24:14.269Z,20.09
2023-02-25T13:27:00.918Z,20.07
2023-02-25T13:29:36.929Z,20.13
2023-02-25T13:32:18.756Z,20.19
2023-02-25T13:34:50.854Z,20.25
2023-02-25T13:37:26.792Z,20.32
2023-02-25T13:40:05.208Z,20.29
2023-02-25T13:42:48.413Z,20.27
2023-02-25T13:46:02.177Z,20.30
2023-02-25T13:48:48.683Z,20.35
2023-02-25T13:51:55.964Z,20.43
2023-02-25T13:54:34.907Z,20.48
2023-02-25T13:57:16.229Z,20.49
2023-02-25T14:00:03.182Z,20.48
2023-02-25T14:02:57.135Z,20.51
2023-02-25T14:05:51.582Z,20.57
2023-02-25T14:08:29.697Z,20.63
2023-02-25T14:11:03.749Z,20.67
2023-02-25T14:13:52.097Z,20.68
2023-02-25T14:16:33.052Z,20.67
2023-02-25T14:19:08.711Z,20.63
2023-02-25T14:21:44.817Z,20.69
2023-02-25T14:24:14.881Z,20.81
2023-02-25T14:26:46.618Z,20.94
2023-02-25T14:29:19.678Z,20.93
2023-02-25T14:31:54.824Z,20.83
2023-02-25T14:34:32.592Z,20.83
2023-02-25T14:37:07.316Z,21.00
2023-02-25T14:39:44.374Z,20.95
2023-02-25T14:42:33.542Z,20.92
2023-02-25T14:45:03.008Z,20.87
2023-02-25T14:47:31.881Z,20.96
2023-02-25T14:50:01.383Z,21.08
2023-02-25T14:52:43.605Z,21.20
2023-02-25T14:55:35.141Z,21.26
2023-02-25T14:58:26.489Z,21.32
2023-02-25T15:01:12.884Z,21.38
2023-02-25T15:03:49.376Z,21.45
2023-02-25T15:06:40.821Z,21.50
2023-02-25T15:09:32.617Z,21.54
2023-02-25T15:12:09.940Z,21.57
2023-02-25T15:15:00.016Z,21.62
2023-02-25T15:17:43.967Z,21.63
2023-02-25T15:20:20.062Z,21.60
2023-02-25T15:22:56.689Z,21.38
2023-02-25T15:25:37.821Z,21.22
2023-02-25T15:28:16.489Z,21.09
2023-02-25T15:33:43.639Z,20.91
2023-02-25T15:36:22.564Z,20.84
2023-02-25T15:38:50.801Z,20.79
2023-02-25T15:41:38.349Z,20.73
2023-02-25T15:44:30.112Z,20.65
2023-02-25T15:47:24.964Z,20.56
2023-02-25T15:49:54.852Z,20.48
2023-02-25T15:52:51.335Z,20.41
2023-02-25T15:55:22.476Z,20.39
2023-02-25T15:57:50.185Z,20.36
2023-02-25T16:00:49.837Z,20.33
2023-02-25T16:03:42.312Z,20.34
2023-02-25T16:06:17.399Z,20.44
2023-02-25T16:08:50.258Z,20.49
2023-02-25T16:11:27.193Z,20.56
2023-02-25T16:13:54.901Z,20.53
2023-02-25T16:16:22.934Z,20.49
2023-02-25T16:18:51.573Z,20.45
2023-02-25T16:21:23.679Z,20.42
2023-02-25T16:23:51.593Z,20.38
2023-02-25T16:26:26.412Z,20.31
2023-02-25T16:28:55.860Z,20.25
2023-02-25T16:31:25.691Z,20.17
2023-02-25T16:33:54.598Z,20.11
2023-02-25T16:36:29.151Z,20.07
2023-02-25T16:38:58.588Z,19.99
2023-02-25T16:41:33.301Z,19.88
2023-02-25T16:44:05.639Z,19.79
2023-02-25T16:46:34.473Z,19.73
2023-02-25T16:49:02.851Z,19.71
2023-02-25T16:51:33.584Z,19.67
2023-02-25T16:54:06.252Z,19.64
2023-02-25T16:56:33.960Z,19.60
2023-02-25T16:59:04.901Z,19.56
2023-02-25T17:01:33.391Z,19.53
2023-02-25T17:04:02.383Z,19.52
2023-02-25T17:06:31.459Z,19.50
2023-02-25T17:08:59.171Z,19.48
2023-02-25T17:11:26.848Z,19.45
2023-02-25T17:13:55.941Z,19.43
2023-02-25T17:16:26.854Z,19.40
2023-02-25T17:18:56.017Z,19.38
2023-02-25T17:21:24.972Z,19.38
2023-02-25T17:23:54.055Z,19.36
2023-02-25T17:26:21.975Z,19.35
2023-02-25T17:28:50.821Z,19.32
2023-02-25T17:31:19.645Z,19.32
2023-02-25T17:33:48.279Z,19.27
2023-02-25T17:36:16.488Z,19.23
2023-02-25T17:38:44.206Z,19.22
2023-02-25T17:41:17.058Z,19.19
2023-02-25T17:43:44.811Z,19.17
2023-02-25T17:46:25.340Z,19.16
2023-02-25T17:48:54.904Z,19.13
2023-02-25T17:51:29.112Z,19.11
2023-02-25T17:53:57.196Z,19.11
2023-02-25T17:56:27.522Z,19.10
2023-02-25T17:58:59.742Z,19.07
2023-02-25T18:01:28.836Z,19.06
2023-02-25T18:03:56.697Z,19.05
2023-02-25T18:06:39.486Z,19.00
2023-02-25T18:09:07.254Z,19.00
2023-02-25T18:11:37.684Z,18.98
2023-02-25T18:14:20.266Z,18.96
2023-02-25T18:16:47.987Z,18.96
2023-02-25T18:19:32.179Z,18.96
2023-02-25T18:21:59.880Z,18.98
2023-02-25T18:24:30.897Z,18.98
2023-02-25T18:27:26.877Z,19.00
2023-02-25T18:29:54.982Z,19.00
2023-02-25T18:32:22.724Z,18.99
2023-02-25T18:34:50.445Z,18.98
2023-02-25T18:37:18.446Z,19.00
2023-02-25T18:39:47.545Z,19.00
2023-02-25T18:42:16.366Z,19.01
2023-02-25T18:44:45.848Z,19.02
2023-02-25T18:47:13.695Z,19.01
2023-02-25T18:49:41.406Z,19.01
2023-02-25T18:52:14.259Z,19.03
2023-02-25T18:54:42.912Z,19.04
2023-02-25T18:57:16.926Z,19.03
2023-02-25T18:59:46.048Z,19.03
2023-02-25T19:02:23.117Z,19.02
2023-02-25T19:04:50.871Z,19.04
2023-02-25T19:07:18.977Z,19.04
2023-02-25T19:09:46.680Z,19.04
2023-02-25T19:12:14.788Z,19.02
2023-02-25T19:14:42.737Z,19.00
2023-02-25T19:17:15.735Z,19.02
2023-02-25T19:19:46.320Z,19.00
2023-02-25T19:22:15.453Z,19.00
2023-02-25T19:24:43.299Z,19.04
2023-02-25T19:27:17.119Z,19.05
2023-02-25T19:29:44.811Z,19.04
2023-02-25T19:32:13.903Z,19.02
2023-02-25T19:34:42.659Z,19.03
2023-02-25T19:37:10.432Z,19.01
2023-02-25T19:39:38.172Z,18.98
2023-02-25T19:42:05.941Z,18.98
2023-02-25T19:44:33.806Z,19.00
2023-02-25T19:47:01.519Z,19.00
2023-02-25T19:49:30.617Z,18.99
2023-02-25T19:51:58.312Z,19.00
2023-02-25T19:54:26.192Z,19.00
2023-02-25T19:56:53.907Z,18.98
2023-02-25T19:59:21.591Z,18.96
2023-02-25T20:01:49.655Z,18.93
2023-02-25T20:04:17.564Z,18.91
2023-02-25T20:06:46.682Z,18.92
2023-02-25T20:09:14.456Z,18.93
2023-02-25T20:11:43.063Z,18.92
2023-02-25T20:14:12.393Z,18.94
2023-02-25T20:16:40.506Z,18.94
2023-02-25T20:19:08.377Z,18.94
2023-02-25T20:21:36.118Z,18.93
2023-02-25T20:24:05.732Z,18.95
2023-02-25T20:26:33.581Z,18.92
2023-02-25T20:29:01.378Z,18.94
2023-02-25T20:31:29.150Z,18.92
2023-02-25T20:33:57.984Z,18.91
2023-02-25T20:36:27.145Z,18.90
2023-02-25T20:39:13.194Z,18.90
2023-02-25T20:41:41.983Z,18.89
2023-02-25T20:44:09.943Z,18.90
2023-02-25T20:46:37.860Z,18.88
2023-02-25T20:49:05.903Z,18.89
2023-02-25T20:51:34.605Z,18.89
2023-02-25T20:54:03.696Z,18.89
2023-02-25T20:56:34.551Z,18.87
2023-02-25T20:59:02.253Z,18.87
2023-02-25T21:01:29.941Z,18.87
2023-02-25T21:03:57.702Z,18.87
2023-02-25T21:06:26.438Z,18.86
2023-02-25T21:08:54.327Z,18.86
2023-02-25T21:11:22.167Z,18.87
2023-02-25T21:13:51.477Z,18.86
2023-02-25T21:16:19.799Z,18.87
2023-02-25T21:18:47.628Z,18.86
2023-02-25T21:21:16.317Z,18.84
2023-02-25T21:23:44.203Z,18.84
2023-02-25T21:26:12.269Z,18.83
2023-02-25T21:28:40.914Z,18.83
2023-02-25T21:31:11.527Z,18.82
2023-02-25T21:33:39.510Z,18.80
2023-02-25T21:36:07.979Z,18.80
2023-02-25T21:38:36.262Z,18.80
2023-02-25T21:41:05.934Z,18.77
2023-02-25T21:43:33.645Z,18.77
2023-02-25T21:46:02.182Z,18.75
2023-02-25T21:48:31.431Z,18.76
2023-02-25T21:50:59.196Z,18.75
2023-02-25T21:53:27.625Z,18.74
2023-02-25T21:55:55.431Z,18.73
2023-02-25T21:58:23.176Z,18.72
2023-02-25T22:00:50.895Z,18.72
2023-02-25T22:03:18.611Z,18.74
2023-02-25T22:05:47.748Z,18.72
2023-02-25T22:08:15.905Z,18.73
2023-02-25T22:10:43.696Z,18.70
2023-02-25T22:13:11.414Z,18.71
2023-02-25T22:15:39.206Z,18.71
2023-02-25T22:18:06.922Z,18.70
2023-02-25T22:20:34.614Z,18.68
2023-02-25T22:23:03.717Z,18.67
2023-02-25T22:25:31.391Z,18.64
2023-02-25T22:27:59.568Z,18.65
2023-02-25T22:30:27.293Z,18.65
2023-02-25T22:32:54.996Z,18.63
2023-02-25T22:35:22.687Z,18.63
2023-02-25T22:37:50.389Z,18.64
2023-02-25T22:40:19.415Z,18.68
2023-02-25T22:42:47.075Z,18.71
2023-02-25T22:45:14.788Z,18.70
2023-02-25T22:47:43.112Z,18.70
2023-02-25T22:50:12.048Z,18.71
2023-02-25T22:52:39.772Z,18.68
2023-02-25T22:55:08.688Z,18.69
2023-02-25T22:57:37.722Z,18.68
2023-02-25T23:00:07.903Z,18.69
2023-02-25T23:02:35.630Z,18.71
2023-02-25T23:05:03.375Z,18.72
2023-02-25T23:07:31.043Z,18.70
2023-02-25T23:09:58.732Z,18.69
2023-02-25T23:12:26.403Z,18.67
2023-02-25T23:14:55.412Z,18.68
2023-02-25T23:17:23.109Z,18.69
2023-02-25T23:19:50.782Z,18.68
2023-02-25T23:22:24.988Z,18.69
2023-02-25T23:24:52.654Z,18.69
2023-02-25T23:27:20.324Z,18.69
2023-02-25T23:29:47.987Z,18.69
2023-02-25T23:32:17.031Z,18.69
2023-02-25T23:34:44.704Z,18.68
2023-02-25T23:37:13.249Z,18.66
2023-02-25T23:39:41.788Z,18.68
2023-02-25T23:42:09.772Z,18.69
2023-02-25T23:44:37.669Z,18.67
2023-02-25T23:47:05.559Z,18.67
2023-02-25T23:49:34.604Z,18.64
2023-02-25T23:52:02.316Z,18.65
2023-02-25T23:54:30.045Z,18.65
2023-02-25T23:56:57.722Z,18.64
2023-02-25T23:59:25.404Z,18.64
